Time;durP1;ratioP1;P1;durP2;ratioP2;P2;SDS_P1;SDS_P2;PMS_P1;PMS_P2;Temp;Humidity;BMP_temperature;BMP_pressure;BME280_temperature;BME280_humidity;BME280_pressure;Samples;Min_cycle;Max_cycle;Signal;HPM_P1;HPM_P2
2022/03/12 00:02:04;;;;;;;;;;;;;;;18.61;46.27;99274.88;4423462;32;19989;-70
2022/03/12 00:04:30;;;;;;;;;;;;;;;18.48;46.51;99269.03;4422644;32;20019;-69
2022/03/12 00:06:55;;;;;;;;;;;;;;;18.25;47.17;99279.75;4423414;32;19964;-69
2022/03/12 00:09:21;;;;;;;;;;;;;;;18.19;47.11;99266.84;4422435;32;20034;-69
2022/03/12 00:11:56;;;;;;;;;;;;;;;18.41;46.69;99263.91;4412387;32;21189;-69
2022/03/12 00:14:23;;;;;;;;;;;;;;;18.48;46.55;99260.47;4421793;32;19997;-69
2022/03/12 00:16:50;;;;;;;;;;;;;;;18.28;47.00;99255.91;4423773;32;20115;-69
2022/03/12 00:19:16;;;;;;;;;;;;;;;18.70;46.21;99268.84;4422410;32;20212;-69
2022/03/12 00:21:42;;;;;;;;;;;;;;;18.37;46.77;99266.22;4422572;32;20197;-69
2022/03/12 00:24:10;;;;;;;;;;;;;;;18.42;46.53;99266.22;4422082;32;20633;-69
2022/03/12 00:26:40;;;;;;;;;;;;;;;18.45;46.68;99264.38;4422526;32;19979;-69
2022/03/12 00:29:14;;;;;;;;;;;;;;;18.66;46.17;99263.47;4421930;32;20022;-69
2022/03/12 00:31:41;;;;;;;;;;;;;;;18.70;45.75;99271.72;4422127;32;20386;-69
2022/03/12 00:34:08;;;;;;;;;;;;;;;18.96;45.28;99269.94;4423259;32;19972;-69
2022/03/12 00:36:34;;;;;;;;;;;;;;;19.13;45.07;99270.56;4417220;32;19999;-69
2022/03/12 00:39:00;;;;;;;;;;;;;;;19.29;44.74;99280.28;4421266;32;19958;-69
2022/03/12 00:41:26;;;;;;;;;;;;;;;19.05;44.95;99277.41;4422858;32;19997;-69
2022/03/12 00:43:52;;;;;;;;;;;;;;;18.62;45.84;99271.50;4421941;32;19994;-69
2022/03/12 00:46:18;;;;;;;;;;;;;;;19.10;44.64;99273.69;4423741;32;20028;-69
2022/03/12 00:48:44;;;;;;;;;;;;;;;19.10;44.65;99271.63;4423881;32;20053;-69
2022/03/12 00:51:10;;;;;;;;;;;;;;;18.75;45.36;99268.81;4422869;32;20578;-69
2022/03/12 00:53:36;;;;;;;;;;;;;;;18.60;45.56;99273.34;4423381;32;19996;-69
2022/03/12 00:56:03;;;;;;;;;;;;;;;18.62;45.60;99282.91;4421628;32;20349;-69
2022/03/12 00:58:28;;;;;;;;;;;;;;;18.89;45.27;99281.12;4422540;32;20006;-69
2022/03/12 01:00:54;;;;;;;;;;;;;;;18.87;45.23;99275.97;4422684;32;19969;-69
2022/03/12 01:03:20;;;;;;;;;;;;;;;18.85;45.36;99270.03;4421305;32;19964;-69
2022/03/12 01:08:23;;;;;;;;;;;;;;;18.92;45.47;99260.13;3948153;32;15826701;-70
2022/03/12 01:10:49;;;;;;;;;;;;;;;18.92;45.47;99260.13;4428219;32;19984;-70
2022/03/12 01:13:15;;;;;;;;;;;;;;;18.73;45.52;99262.09;4428002;32;20330;-70
2022/03/12 01:15:41;;;;;;;;;;;;;;;18.52;46.10;99258.09;4426856;32;19969;-70
2022/03/12 01:18:12;;;;;;;;;;;;;;;18.23;47.06;99262.44;4413537;32;19941;-70
2022/03/12 01:20:38;;;;;;;;;;;;;;;18.57;46.54;99271.56;4427837;32;19967;-70
2022/03/12 01:23:04;;;;;;;;;;;;;;;18.28;46.87;99270.16;4429894;32;19958;-70
2022/03/12 01:25:30;;;;;;;;;;;;;;;18.17;47.06;99263.75;4427194;32;19989;-70
2022/03/12 01:27:56;;;;;;;;;;;;;;;18.13;47.27;99272.56;4429340;32;20319;-70
2022/03/12 01:30:26;;;;;;;;;;;;;;;17.59;48.23;99275.13;4429179;32;20353;-70
2022/03/12 01:32:52;;;;;;;;;;;;;;;17.69;48.20;99267.06;4427935;32;20522;-70
2022/03/12 01:35:17;;;;;;;;;;;;;;;17.83;47.82;99263.91;4428670;32;19973;-70
2022/03/12 01:37:43;;;;;;;;;;;;;;;17.60;48.29;99261.66;4424553;32;20001;-70
2022/03/12 01:40:09;;;;;;;;;;;;;;;17.44;48.65;99256.81;4413209;32;19949;-70
2022/03/12 01:42:34;;;;;;;;;;;;;;;17.57;48.72;99263.50;4427532;32;20042;-70
2022/03/12 01:45:00;;;;;;;;;;;;;;;17.37;48.78;99258.06;4429433;32;20009;-70
2022/03/12 01:47:26;;;;;;;;;;;;;;;17.73;48.08;99251.28;4429139;32;20444;-70
2022/03/12 01:49:52;;;;;;;;;;;;;;;17.50;48.43;99252.66;4427602;32;21236;-70
2022/03/12 01:52:17;;;;;;;;;;;;;;;17.47;48.52;99250.06;4427389;32;19949;-70
2022/03/12 01:54:43;;;;;;;;;;;;;;;17.75;47.92;99253.59;4425573;32;19968;-70
2022/03/12 01:57:09;;;;;;;;;;;;;;;17.81;47.69;99248.66;4428208;32;20206;-70
2022/03/12 01:59:36;;;;;;;;;;;;;;;17.74;47.54;99247.13;4424001;32;20012;-70
2022/03/12 02:02:04;;;;;;;;;;;;;;;17.55;48.29;99253.94;4412050;32;19989;-70
2022/03/12 02:04:30;;;;;;;;;;;;;;;17.73;47.95;99254.13;4415033;32;19958;-70
2022/03/12 02:06:58;;;;;;;;;;;;;;;17.61;48.12;99251.81;4425514;32;20017;-70
2022/03/12 02:09:24;;;;;;;;;;;;;;;17.62;48.21;99256.25;4427347;32;20460;-70
2022/03/12 02:12:08;;;;;;;;;;;;;;;17.97;47.44;99258.44;4428598;32;20333;-70
2022/03/12 02:14:36;;;;;;;;;;;;;;;17.73;47.71;99256.97;4430089;32;20440;-69
2022/03/12 02:17:03;;;;;;;;;;;;;;;17.76;47.77;99246.59;4427880;32;19979;-69
2022/03/12 02:19:31;;;;;;;;;;;;;;;18.03;47.09;99254.25;4419492;32;19969;-70
2022/03/12 02:22:01;;;;;;;;;;;;;;;17.69;47.68;99247.16;4415719;32;19972;-70
2022/03/12 02:24:29;;;;;;;;;;;;;;;17.25;48.67;99253.69;4416327;32;20736;-70
2022/03/12 02:26:56;;;;;;;;;;;;;;;17.42;47.94;99248.75;4418284;32;20000;-70
2022/03/12 02:29:22;;;;;;;;;;;;;;;17.50;48.24;99240.50;4417854;32;20017;-70
2022/03/12 02:31:50;;;;;;;;;;;;;;;17.53;47.77;99248.78;4418062;32;19950;-70
2022/03/12 02:34:21;;;;;;;;;;;;;;;17.58;47.75;99244.38;4421724;32;19959;-70
2022/03/12 02:36:48;;;;;;;;;;;;;;;17.48;47.83;99243.88;4419174;32;19957;-70
2022/03/12 02:39:14;;;;;;;;;;;;;;;17.57;47.75;99242.78;4416268;32;20000;-70
2022/03/12 02:41:39;;;;;;;;;;;;;;;18.17;46.30;99249.50;4415809;32;20417;-70
2022/03/12 02:44:06;;;;;;;;;;;;;;;18.28;46.36;99235.97;4415894;32;19976;-70
2022/03/12 02:46:35;;;;;;;;;;;;;;;18.43;46.17;99241.34;4420122;32;20396;-70
2022/03/12 02:49:01;;;;;;;;;;;;;;;18.06;47.03;99241.03;4418040;32;20057;-70
2022/03/12 02:51:26;;;;;;;;;;;;;;;17.85;47.73;99244.25;4413873;32;19964;-70
2022/03/12 02:53:56;;;;;;;;;;;;;;;17.54;48.31;99247.47;4419175;32;19985;-70
2022/03/12 02:56:23;;;;;;;;;;;;;;;17.60;48.46;99244.59;4415302;32;20254;-70
2022/03/12 02:58:50;;;;;;;;;;;;;;;17.80;48.15;99247.13;4418634;32;19975;-69
2022/03/12 03:01:16;;;;;;;;;;;;;;;17.61;48.44;99229.84;4414407;32;19953;-70
2022/03/12 03:03:42;;;;;;;;;;;;;;;17.31;49.38;99242.34;4417682;32;19982;-69
2022/03/12 03:06:09;;;;;;;;;;;;;;;16.93;49.88;99237.47;4417369;32;20343;-69
2022/03/12 03:08:39;;;;;;;;;;;;;;;16.89;50.20;99249.13;4415530;32;20008;-70
2022/03/12 03:11:15;;;;;;;;;;;;;;;17.26;49.57;99251.63;4415929;32;20018;-70
2022/03/12 03:13:44;;;;;;;;;;;;;;;17.81;48.49;99243.75;4415691;32;20416;-70
2022/03/12 03:16:21;;;;;;;;;;;;;;;17.12;49.22;99236.41;4418954;32;20373;-70
2022/03/12 03:18:51;;;;;;;;;;;;;;;17.40;48.75;99242.06;4417253;32;19994;-70
2022/03/12 03:21:19;;;;;;;;;;;;;;;17.52;48.16;99250.03;4419390;32;20296;-70
2022/03/12 03:23:46;;;;;;;;;;;;;;;17.67;47.99;99239.13;4419009;32;19953;-70
2022/03/12 03:26:11;;;;;;;;;;;;;;;17.27;48.92;99244.66;4417230;32;20553;-70
2022/03/12 03:28:38;;;;;;;;;;;;;;;16.82;49.67;99241.13;4415269;32;19961;-70
2022/03/12 03:31:05;;;;;;;;;;;;;;;17.21;48.91;99241.06;4413075;32;19989;-70
2022/03/12 03:33:32;;;;;;;;;;;;;;;17.44;48.15;99245.44;4415695;32;19997;-70
2022/03/12 03:35:57;;;;;;;;;;;;;;;16.84;48.94;99227.16;4417527;32;19949;-70
2022/03/12 03:38:24;;;;;;;;;;;;;;;17.07;48.84;99239.28;4417542;32;19961;-70
2022/03/12 03:40:50;;;;;;;;;;;;;;;17.27;48.11;99233.28;4418115;32;20026;-70
2022/03/12 03:43:19;;;;;;;;;;;;;;;17.35;47.61;99242.84;4413731;32;20004;-70
2022/03/12 03:45:46;;;;;;;;;;;;;;;16.98;48.44;99250.91;4415622;32;20012;-70
2022/03/12 03:48:14;;;;;;;;;;;;;;;17.53;47.49;99248.78;4415985;32;19971;-70
2022/03/12 03:50:41;;;;;;;;;;;;;;;17.26;47.70;99249.59;4416951;32;20444;-70
2022/03/12 03:53:06;;;;;;;;;;;;;;;17.14;47.48;99252.94;4414301;32;20388;-70
2022/03/12 03:55:33;;;;;;;;;;;;;;;17.59;46.70;99241.00;4414239;32;20013;-70
2022/03/12 03:57:59;;;;;;;;;;;;;;;17.54;46.59;99256.00;4417430;32;20062;-70
2022/03/12 04:00:26;;;;;;;;;;;;;;;17.17;46.87;99235.66;4415464;32;20015;-70
2022/03/12 04:03:01;;;;;;;;;;;;;;;17.08;46.91;99255.81;4419070;32;19966;-70
2022/03/12 04:05:27;;;;;;;;;;;;;;;17.12;46.86;99261.25;4415704;32;20033;-70
2022/03/12 04:07:53;;;;;;;;;;;;;;;17.38;46.07;99248.25;4417987;32;19954;-70
2022/03/12 04:10:19;;;;;;;;;;;;;;;17.32;46.04;99247.50;4415080;32;20479;-70
2022/03/12 04:12:45;;;;;;;;;;;;;;;17.53;45.37;99245.13;4416386;32;19985;-70
2022/03/12 04:15:11;;;;;;;;;;;;;;;17.70;45.31;99254.37;4416131;32;19997;-70
2022/03/12 04:17:37;;;;;;;;;;;;;;;17.50;45.88;99258.34;4411867;32;20268;-70
2022/03/12 04:20:03;;;;;;;;;;;;;;;17.68;45.36;99262.69;4417456;32;19988;-70
2022/03/12 04:22:31;;;;;;;;;;;;;;;17.58;45.82;99261.44;4415126;32;20078;-70
2022/03/12 04:24:59;;;;;;;;;;;;;;;17.79;45.61;99260.56;4418121;32;20012;-70
2022/03/12 04:27:25;;;;;;;;;;;;;;;17.69;45.48;99256.47;4417747;32;19957;-70
2022/03/12 04:29:51;;;;;;;;;;;;;;;17.88;45.17;99268.81;4414331;32;20875;-70
2022/03/12 04:32:17;;;;;;;;;;;;;;;17.68;45.32;99254.91;4416774;32;20016;-70
2022/03/12 04:34:42;;;;;;;;;;;;;;;17.51;45.69;99242.81;4415910;32;19957;-70
2022/03/12 04:37:08;;;;;;;;;;;;;;;17.54;45.91;99256.00;4414877;32;20018;-70
2022/03/12 04:39:34;;;;;;;;;;;;;;;17.92;45.07;99260.75;4414078;32;19945;-70
2022/03/12 04:42:01;;;;;;;;;;;;;;;17.27;46.02;99268.19;4414305;32;19989;-70
2022/03/12 04:44:26;;;;;;;;;;;;;;;16.87;46.89;99253.75;4413887;32;20022;-70
2022/03/12 04:46:52;;;;;;;;;;;;;;;17.04;46.60;99265.88;4417039;32;20348;-70
2022/03/12 04:49:18;;;;;;;;;;;;;;;17.82;45.24;99273.75;4418917;32;20035;-70
2022/03/12 04:51:44;;;;;;;;;;;;;;;17.73;45.36;99268.34;4400839;32;20481;-70
2022/03/12 04:54:10;;;;;;;;;;;;;;;17.13;46.36;99274.16;4418031;32;19984;-70
2022/03/12 04:56:36;;;;;;;;;;;;;;;17.50;45.57;99275.41;4415843;32;19989;-70
2022/03/12 04:59:01;;;;;;;;;;;;;;;17.05;46.39;99273.91;4417865;32;19988;-70
2022/03/12 05:01:28;;;;;;;;;;;;;;;17.27;46.17;99285.25;4416449;32;19965;-70
2022/03/12 05:03:54;;;;;;;;;;;;;;;17.41;45.91;99284.19;4402213;32;19972;-70
2022/03/12 05:06:21;;;;;;;;;;;;;;;17.52;45.35;99294.81;4402100;32;20056;-70
2022/03/12 05:08:47;;;;;;;;;;;;;;;17.40;45.80;99284.72;4413779;32;19958;-70
2022/03/12 05:11:13;;;;;;;;;;;;;;;17.50;45.37;99281.09;4415250;32;20007;-70
2022/03/12 05:13:39;;;;;;;;;;;;;;;17.89;44.83;99290.25;4413970;32;19962;-69
2022/03/12 05:16:06;;;;;;;;;;;;;;;17.52;45.05;99289.12;4416777;32;19977;-70
2022/03/12 05:18:33;;;;;;;;;;;;;;;17.95;44.35;99278.09;4414228;32;19973;-70
2022/03/12 05:20:59;;;;;;;;;;;;;;;17.84;44.70;99276.06;4417258;32;20394;-70
2022/03/12 05:23:26;;;;;;;;;;;;;;;17.41;45.21;99284.19;4417319;32;20021;-70
2022/03/12 05:25:52;;;;;;;;;;;;;;;17.85;44.38;99269.06;4416855;32;20383;-70
2022/03/12 05:28:22;;;;;;;;;;;;;;;17.98;44.16;99285.59;4412423;32;20046;-70
2022/03/12 05:30:48;;;;;;;;;;;;;;;17.90;44.21;99291.03;4412733;32;19953;-70
2022/03/12 05:33:14;;;;;;;;;;;;;;;17.71;44.75;99287.25;4416719;32;20027;-70
2022/03/12 05:35:41;;;;;;;;;;;;;;;17.88;44.46;99291.56;4414542;32;19957;-69
2022/03/12 05:38:07;;;;;;;;;;;;;;;17.89;44.77;99289.50;4414396;32;19999;-69
2022/03/12 05:40:38;;;;;;;;;;;;;;;17.68;45.34;99297.56;4413949;32;19953;-70
2022/03/12 05:43:07;;;;;;;;;;;;;;;17.38;46.14;99293.75;4413979;32;19953;-70
2022/03/12 05:45:33;;;;;;;;;;;;;;;17.04;46.76;99292.25;4414706;32;19954;-69
2022/03/12 05:47:58;;;;;;;;;;;;;;;16.87;47.22;99296.38;4418302;32;20421;-69
2022/03/12 05:50:24;;;;;;;;;;;;;;;16.96;46.99;99294.06;4414838;32;20246;-69
2022/03/12 05:52:50;;;;;;;;;;;;;;;17.25;46.35;99304.12;4419088;32;19954;-69
2022/03/12 05:55:18;;;;;;;;;;;;;;;16.96;47.39;99304.62;4416934;32;20050;-70
2022/03/12 05:57:44;;;;;;;;;;;;;;;17.21;47.11;99307.22;4419734;32;20079;-70
2022/03/12 06:00:11;;;;;;;;;;;;;;;17.08;47.38;99311.88;4416440;32;20006;-69
2022/03/12 06:02:44;;;;;;;;;;;;;;;17.03;47.92;99324.78;4415995;32;19954;-69
2022/03/12 06:05:12;;;;;;;;;;;;;;;16.95;48.21;99320.94;4417055;32;20026;-69
2022/03/12 06:07:44;;;;;;;;;;;;;;;17.37;47.54;99314.94;4420042;32;19961;-70
2022/03/12 06:10:09;;;;;;;;;;;;;;;16.90;48.21;99323.75;4420014;32;20015;-70
2022/03/12 06:12:35;;;;;;;;;;;;;;;17.05;48.15;99327.12;4418047;32;19981;-70
2022/03/12 06:15:05;;;;;;;;;;;;;;;17.03;48.29;99324.78;4417719;32;19993;-70
2022/03/12 06:17:30;;;;;;;;;;;;;;;16.67;48.71;99333.53;4419350;32;19968;-70
2022/03/12 06:19:57;;;;;;;;;;;;;;;17.05;48.07;99333.59;4420208;32;19973;-70
2022/03/12 06:22:22;;;;;;;;;;;;;;;16.48;48.85;99341.00;4418135;32;19946;-70
2022/03/12 06:24:49;;;;;;;;;;;;;;;16.93;48.12;99346.22;4416419;32;19965;-69
2022/03/12 06:27:17;;;;;;;;;;;;;;;17.29;47.54;99358.66;4418608;32;20005;-69
2022/03/12 06:29:43;;;;;;;;;;;;;;;17.42;47.10;99368.19;4419943;32;19997;-69
2022/03/12 06:32:10;;;;;;;;;;;;;;;17.43;47.16;99369.78;4401343;32;19990;-69
2022/03/12 06:34:35;;;;;;;;;;;;;;;17.18;47.28;99367.94;4417189;32;20028;-69
2022/03/12 06:37:02;;;;;;;;;;;;;;;17.28;46.97;99366.38;4418592;32;20034;-69
2022/03/12 06:39:27;;;;;;;;;;;;;;;17.15;46.68;99382.44;4416190;32;20322;-69
2022/03/12 06:41:54;;;;;;;;;;;;;;;16.30;48.26;99378.34;4415995;32;19996;-69
2022/03/12 06:44:20;;;;;;;;;;;;;;;16.67;47.27;99393.19;4420445;32;20362;-69
2022/03/12 06:46:46;;;;;;;;;;;;;;;16.52;47.50;99381.28;4418493;32;19968;-69
2022/03/12 06:49:11;;;;;;;;;;;;;;;16.60;47.34;99388.03;4417120;32;20024;-69
2022/03/12 06:51:38;;;;;;;;;;;;;;;16.44;47.49;99392.34;4417744;32;20028;-69
2022/03/12 06:54:04;;;;;;;;;;;;;;;16.54;47.13;99396.50;4421827;32;20341;-69
2022/03/12 06:56:30;;;;;;;;;;;;;;;16.70;46.74;99398.63;4418511;32;19953;-69
2022/03/12 06:58:55;;;;;;;;;;;;;;;16.38;46.85;99404.97;4417567;32;20001;-69
2022/03/12 07:01:21;;;;;;;;;;;;;;;16.45;47.19;99408.13;4420427;32;19949;-69
2022/03/12 07:03:47;;;;;;;;;;;;;;;16.16;47.76;99404.84;4399567;32;20066;-69
2022/03/12 07:06:13;;;;;;;;;;;;;;;16.44;47.07;99417.91;4417910;32;20000;-69
2022/03/12 07:08:39;;;;;;;;;;;;;;;16.45;47.18;99416.63;4420152;32;19972;-69
2022/03/12 07:11:05;;;;;;;;;;;;;;;16.45;47.13;99427.22;4417738;32;20009;-69
2022/03/12 07:13:32;;;;;;;;;;;;;;;16.59;46.51;99426.22;4420915;32;20356;-69
2022/03/12 07:16:00;;;;;;;;;;;;;;;16.84;46.36;99439.50;4418657;32;19968;-69
2022/03/12 07:18:29;;;;;;;;;;;;;;;17.02;45.87;99436.16;4415468;32;20025;-69
2022/03/12 07:20:55;;;;;;;;;;;;;;;17.29;45.43;99443.94;4419030;32;19970;-69
2022/03/12 07:23:21;;;;;;;;;;;;;;;16.87;46.46;99456.25;4416513;32;19962;-69
2022/03/12 07:25:48;;;;;;;;;;;;;;;16.79;47.22;99455.22;4416536;32;19993;-68
2022/03/12 07:28:17;;;;;;;;;;;;;;;16.88;47.12;99463.50;4419760;32;20392;-68
2022/03/12 07:30:43;;;;;;;;;;;;;;;17.29;46.92;99469.53;4415658;32;20434;-68
2022/03/12 07:33:09;;;;;;;;;;;;;;;17.34;47.17;99460.25;4418683;32;19957;-68
2022/03/12 07:35:35;;;;;;;;;;;;;;;17.49;46.65;99463.66;4414407;32;20344;-68
2022/03/12 07:38:00;;;;;;;;;;;;;;;17.61;46.82;99470.88;4420712;32;19968;-68
2022/03/12 07:40:26;;;;;;;;;;;;;;;17.32;47.45;99488.41;4414466;32;19988;-69
2022/03/12 07:42:52;;;;;;;;;;;;;;;17.07;47.43;99475.97;4417987;32;19953;-69
2022/03/12 07:45:19;;;;;;;;;;;;;;;17.36;47.22;99488.91;4420101;32;19961;-69
2022/03/12 07:47:44;;;;;;;;;;;;;;;16.88;48.16;99486.22;4415431;32;20084;-69
2022/03/12 07:50:11;;;;;;;;;;;;;;;16.46;48.66;99482.69;4419208;32;20280;-69
2022/03/12 07:52:37;;;;;;;;;;;;;;;16.80;48.21;99484.41;4414335;32;20572;-69
2022/03/12 07:55:05;;;;;;;;;;;;;;;16.75;48.10;99505.81;4418138;32;20012;-70
2022/03/12 07:57:30;;;;;;;;;;;;;;;16.09;48.88;99519.63;4416526;32;19989;-70
2022/03/12 07:59:56;;;;;;;;;;;;;;;16.18;48.96;99508.09;4417565;32;19957;-71
2022/03/12 08:02:22;;;;;;;;;;;;;;;15.98;49.07;99517.50;4414792;32;20397;-71
2022/03/12 08:04:48;;;;;;;;;;;;;;;16.27;48.84;99519.25;4418584;32;19945;-71
2022/03/12 08:07:14;;;;;;;;;;;;;;;16.15;48.67;99526.13;4415910;32;19998;-71
2022/03/12 08:09:39;;;;;;;;;;;;;;;16.23;48.06;99530.03;4415555;32;19957;-71
2022/03/12 08:12:05;;;;;;;;;;;;;;;16.54;47.42;99529.97;4413499;32;20030;-70
2022/03/12 08:14:33;;;;;;;;;;;;;;;16.61;47.09;99542.94;4416034;32;19977;-69
2022/03/12 08:16:58;;;;;;;;;;;;;;;16.70;46.01;99540.69;4414860;32;20052;-70
2022/03/12 08:19:24;;;;;;;;;;;;;;;16.66;45.47;99542.19;4411887;32;20296;-70
2022/03/12 08:21:51;;;;;;;;;;;;;;;16.82;45.60;99556.50;4418616;32;20336;-70
2022/03/12 08:24:17;;;;;;;;;;;;;;;17.16;45.11;99554.53;4402326;32;20005;-71
2022/03/12 08:26:43;;;;;;;;;;;;;;;17.31;44.76;99561.56;4415999;32;19997;-71
2022/03/12 08:29:10;;;;;;;;;;;;;;;17.60;43.72;99575.38;4416454;32;20024;-71
2022/03/12 08:31:37;;;;;;;;;;;;;;;17.58;43.92;99577.94;4416112;32;20003;-69
2022/03/12 08:34:03;;;;;;;;;;;;;;;18.09;43.20;99590.94;4416044;32;20048;-69
2022/03/12 08:36:29;;;;;;;;;;;;;;;18.19;42.83;99588.59;4413906;32;19949;-69
2022/03/12 08:38:55;;;;;;;;;;;;;;;17.43;43.26;99607.91;4416721;32;20446;-69
2022/03/12 08:41:22;;;;;;;;;;;;;;;18.37;42.58;99603.09;4415226;32;19962;-69
2022/03/12 08:43:48;;;;;;;;;;;;;;;18.36;42.12;99607.22;4415636;32;20030;-69
2022/03/12 08:46:14;;;;;;;;;;;;;;;18.29;41.60;99610.59;4417664;32;19992;-69
2022/03/12 08:48:40;;;;;;;;;;;;;;;18.27;41.55;99635.19;4418860;32;20286;-69
2022/03/12 08:51:06;;;;;;;;;;;;;;;18.43;41.85;99620.19;4401670;32;20828;-69
2022/03/12 08:53:33;;;;;;;;;;;;;;;18.68;41.45;99625.59;4416435;32;20017;-69
2022/03/12 08:56:00;;;;;;;;;;;;;;;18.37;41.75;99625.88;4415519;32;19967;-69
2022/03/12 08:58:27;;;;;;;;;;;;;;;19.04;40.33;99633.03;4414262;32;20003;-69
2022/03/12 09:00:53;;;;;;;;;;;;;;;19.55;39.52;99631.53;4416368;32;20289;-69
2022/03/12 09:03:20;;;;;;;;;;;;;;;19.17;39.11;99641.78;4398231;32;20413;-69
2022/03/12 09:05:47;;;;;;;;;;;;;;;18.37;40.60;99633.66;4415115;32;20245;-69
2022/03/12 09:08:12;;;;;;;;;;;;;;;18.65;40.25;99635.19;4412623;32;19958;-69
2022/03/12 09:10:38;;;;;;;;;;;;;;;18.60;41.02;99646.59;4415243;32;19985;-69
2022/03/12 09:13:06;;;;;;;;;;;;;;;18.55;40.46;99642.47;4414767;32;20414;-69
2022/03/12 09:15:32;;;;;;;;;;;;;;;18.68;40.70;99634.16;4415422;32;20069;-69
2022/03/12 09:17:57;;;;;;;;;;;;;;;18.07;41.46;99639.06;4414626;32;20405;-69
2022/03/12 09:20:23;;;;;;;;;;;;;;;18.11;41.41;99638.81;4412190;32;20372;-69
2022/03/12 09:22:49;;;;;;;;;;;;;;;18.04;41.66;99640.09;4414513;32;19962;-69
2022/03/12 09:25:15;;;;;;;;;;;;;;;18.12;41.20;99648.91;4414853;32;19996;-70
2022/03/12 09:27:42;;;;;;;;;;;;;;;18.89;40.72;99651.72;4416968;32;20321;-70
2022/03/12 09:30:08;;;;;;;;;;;;;;;19.37;39.71;99661.47;4420753;32;20001;-70
2022/03/12 09:32:34;;;;;;;;;;;;;;;19.37;38.34;99647.19;4417850;32;19995;-70
2022/03/12 09:35:00;;;;;;;;;;;;;;;19.45;38.15;99658.81;4417141;32;20032;-70
2022/03/12 09:37:25;;;;;;;;;;;;;;;19.12;38.24;99645.44;4418160;32;20011;-70
2022/03/12 09:39:51;;;;;;;;;;;;;;;19.16;38.71;99650.87;4414690;32;19965;-70
2022/03/12 09:42:17;;;;;;;;;;;;;;;18.99;38.59;99662.31;4419913;32;19976;-70
2022/03/12 09:44:43;;;;;;;;;;;;;;;19.44;38.34;99655.19;4417589;32;19954;-70
2022/03/12 09:47:08;;;;;;;;;;;;;;;19.30;37.98;99661.22;4420191;32;20323;-70
2022/03/12 09:49:35;;;;;;;;;;;;;;;19.23;37.59;99668.22;4418385;32;19973;-70
2022/03/12 09:52:01;;;;;;;;;;;;;;;19.54;37.29;99689.91;4416704;32;20005;-70
2022/03/12 09:54:29;;;;;;;;;;;;;;;18.52;38.20;99691.16;4418846;32;20001;-70
2022/03/12 09:56:56;;;;;;;;;;;;;;;18.34;38.60;99686.72;4422447;32;20016;-71
2022/03/12 09:59:22;;;;;;;;;;;;;;;18.02;39.11;99696.78;4418719;32;19962;-70
2022/03/12 10:01:47;;;;;;;;;;;;;;;17.92;39.25;99687.69;4417639;32;20017;-70
2022/03/12 10:04:13;;;;;;;;;;;;;;;18.13;39.19;99693.19;4419538;32;20016;-70
2022/03/12 10:06:40;;;;;;;;;;;;;;;17.81;39.50;99682.00;4419055;32;20005;-70
2022/03/12 10:09:06;;;;;;;;;;;;;;;17.99;39.07;99692.12;4418097;32;20367;-70
2022/03/12 10:11:33;;;;;;;;;;;;;;;19.07;38.13;99689.00;4414471;32;20398;-70
2022/03/12 10:13:59;;;;;;;;;;;;;;;19.07;38.04;99694.72;4403516;32;20002;-70
2022/03/12 10:16:25;;;;;;;;;;;;;;;18.44;38.36;99707.97;4416612;32;20009;-70
2022/03/12 10:18:51;;;;;;;;;;;;;;;18.58;38.45;99714.72;4416028;32;19953;-70
2022/03/12 10:21:17;;;;;;;;;;;;;;;18.71;38.86;99721.44;4417343;32;20095;-70
2022/03/12 10:23:43;;;;;;;;;;;;;;;19.20;37.36;99717.75;4420015;32;19988;-70
2022/03/12 10:26:09;;;;;;;;;;;;;;;19.56;36.57;99718.69;4416461;32;20034;-70
2022/03/12 10:28:36;;;;;;;;;;;;;;;19.94;36.46;99726.31;4416362;32;20004;-70
2022/03/12 10:31:05;;;;;;;;;;;;;;;19.75;35.73;99733.94;4403794;32;19964;-70
2022/03/12 10:33:31;;;;;;;;;;;;;;;20.01;35.09;99730.69;4405507;32;20335;-70
2022/03/12 10:36:07;;;;;;;;;;;;;;;19.53;35.98;99726.25;4416325;32;20020;-70
2022/03/12 10:38:41;;;;;;;;;;;;;;;19.40;36.53;99723.19;4415196;32;20005;-70
2022/03/12 10:41:08;;;;;;;;;;;;;;;19.25;36.39;99733.31;4416633;32;19949;-70
2022/03/12 10:43:43;;;;;;;;;;;;;;;19.47;36.47;99739.75;4417694;32;20007;-70
2022/03/12 10:46:09;;;;;;;;;;;;;;;19.71;36.84;99742.78;4402704;32;19988;-71
2022/03/12 10:48:38;;;;;;;;;;;;;;;19.79;36.37;99740.16;4418228;32;20007;-70
2022/03/12 10:51:04;;;;;;;;;;;;;;;19.98;35.17;99748.87;4416465;32;20440;-71
2022/03/12 10:53:30;;;;;;;;;;;;;;;19.98;36.05;99746.03;4418774;32;19997;-71
2022/03/12 10:55:58;;;;;;;;;;;;;;;20.09;36.06;99763.13;4419913;32;20401;-71
2022/03/12 10:58:26;;;;;;;;;;;;;;;19.92;36.30;99756.69;4416690;32;20304;-71
2022/03/12 11:00:53;;;;;;;;;;;;;;;19.71;36.83;99744.84;4402242;32;20027;-71
2022/03/12 11:03:22;;;;;;;;;;;;;;;19.85;36.51;99738.03;4419293;32;19958;-71
2022/03/12 11:05:49;;;;;;;;;;;;;;;19.95;36.60;99736.44;4418563;32;20334;-71
2022/03/12 11:08:17;;;;;;;;;;;;;;;20.50;36.12;99749.63;4414100;32;19961;-71
2022/03/12 11:10:44;;;;;;;;;;;;;;;20.57;34.77;99737.62;4417034;32;20377;-71
2022/03/12 11:13:11;;;;;;;;;;;;;;;20.10;36.25;99742.59;4417517;32;20488;-71
2022/03/12 11:15:37;;;;;;;;;;;;;;;20.43;35.49;99753.06;4418609;32;20003;-71
2022/03/12 11:18:04;;;;;;;;;;;;;;;20.20;35.80;99746.72;4417652;32;20008;-71
2022/03/12 11:20:35;;;;;;;;;;;;;;;20.23;35.94;99756.28;4418641;32;19989;-71
2022/03/12 11:26:05;;;;;;;;;;;;;;;19.48;38.08;99769.03;3946761;32;15723244;-70
2022/03/12 11:28:31;;;;;;;;;;;;;;;19.48;38.08;99769.03;4428089;32;20416;-70
2022/03/12 11:30:57;;;;;;;;;;;;;;;18.93;38.82;99769.91;4427311;32;20066;-70
2022/03/12 11:33:26;;;;;;;;;;;;;;;19.78;37.62;99770.00;4425454;32;20338;-71
2022/03/12 11:36:00;;;;;;;;;;;;;;;19.98;36.88;99777.44;4427527;32;19954;-70
2022/03/12 11:38:27;;;;;;;;;;;;;;;20.75;35.82;99774.13;4428270;32;19997;-71
2022/03/12 11:41:13;;;;;;;;;;;;;;;20.76;35.17;99785.03;4424603;32;20000;-70
2022/03/12 11:43:40;;;;;;;;;;;;;;;21.49;34.34;99781.00;4427002;32;19992;-71
2022/03/12 11:46:07;;;;;;;;;;;;;;;21.16;34.29;99784.19;4428172;32;19968;-70
2022/03/12 11:48:34;;;;;;;;;;;;;;;20.68;34.16;99783.28;4430744;32;20284;-70
2022/03/12 11:51:00;;;;;;;;;;;;;;;20.71;33.99;99771.53;4425871;32;20002;-70
2022/03/12 11:53:39;;;;;;;;;;;;;;;20.67;33.81;99771.06;4425334;32;19993;-70
2022/03/12 11:56:07;;;;;;;;;;;;;;;20.24;34.04;99778.63;4428106;32;20072;-70
2022/03/12 11:58:33;;;;;;;;;;;;;;;20.23;34.72;99779.16;4425467;32;19945;-70
2022/03/12 12:00:58;;;;;;;;;;;;;;;20.16;34.52;99774.78;4424186;32;19958;-70
2022/03/12 12:03:24;;;;;;;;;;;;;;;20.73;33.19;99794.66;4425034;32;20514;-70
2022/03/12 12:05:52;;;;;;;;;;;;;;;20.16;34.08;99794.00;4426260;32;19945;-71
2022/03/12 12:08:18;;;;;;;;;;;;;;;20.23;34.40;99787.72;4426794;32;20381;-71
2022/03/12 12:10:44;;;;;;;;;;;;;;;20.32;34.50;99779.63;4426814;32;19996;-71
2022/03/12 12:13:12;;;;;;;;;;;;;;;20.74;33.32;99772.59;4426649;32;20263;-71
2022/03/12 12:15:39;;;;;;;;;;;;;;;20.61;33.22;99792.41;4426595;32;19965;-71
2022/03/12 12:18:07;;;;;;;;;;;;;;;20.75;33.09;99762.69;4424872;32;19997;-71
2022/03/12 12:20:33;;;;;;;;;;;;;;;21.41;32.53;99760.00;4425440;32;20004;-71
2022/03/12 12:23:01;;;;;;;;;;;;;;;22.00;31.13;99770.50;4424326;32;19968;-71
2022/03/12 12:25:37;;;;;;;;;;;;;;;23.04;30.08;99776.03;4425403;32;19997;-71
2022/03/12 12:28:15;;;;;;;;;;;;;;;22.63;30.25;99775.62;4423845;32;19979;-71
2022/03/12 12:30:43;;;;;;;;;;;;;;;22.01;30.67;99794.22;4421405;32;19961;-70
2022/03/12 12:33:13;;;;;;;;;;;;;;;21.80;31.33;99782.50;4424795;32;21012;-71
2022/03/12 12:35:39;;;;;;;;;;;;;;;21.41;31.35;99805.78;4420748;32;20276;-71
2022/03/12 12:38:08;;;;;;;;;;;;;;;21.01;32.45;99786.66;4413270;32;20185;-71
2022/03/12 12:40:38;;;;;;;;;;;;;;;21.67;31.06;99771.66;4413348;32;20345;-71
2022/03/12 12:43:09;;;;;;;;;;;;;;;21.12;31.71;99789.44;4417399;32;19950;-71
2022/03/12 12:45:36;;;;;;;;;;;;;;;21.80;31.01;99782.50;4413737;32;20043;-71
2022/03/12 12:48:11;;;;;;;;;;;;;;;21.99;30.61;99789.03;4415617;32;20812;-71
2022/03/12 12:50:40;;;;;;;;;;;;;;;21.73;31.34;99773.69;4413255;32;19973;-71